sensor_id;sensor_type;location;lat;lon;timestamp;temperature;humidity
19363;DHT22;9817;50.80926400;5.16316200;2023-10-13T00:00:14;19.50;99.90
19363;DHT22;9817;50.80926400;5.16316200;2023-10-13T00:02:51;19.60;99.90
19363;DHT22;9817;50.80926400;5.16316200;2023-10-13T00:05:18;19.60;99.90
19363;DHT22;9817;50.80926400;5.16316200;2023-10-13T00:07:45;19.60;99.90
19363;DHT22;9817;50.80926400;5.16316200;2023-10-13T00:10:10;19.70;99.90
19363;DHT22;9817;50.80926400;5.16316200;2023-10-13T00:12:37;19.80;99.90
19363;DHT22;9817;50.80926400;5.16316200;2023-10-13T00:15:04;19.80;99.90
19363;DHT22;9817;50.80926400;5.16316200;2023-10-13T00:17:32;19.80;99.90
19363;DHT22;9817;50.80926400;5.16316200;2023-10-13T00:19:58;19.70;99.90
19363;DHT22;9817;50.80926400;5.16316200;2023-10-13T00:22:25;19.70;99.90
19363;DHT22;9817;50.80926400;5.16316200;2023-10-13T00:24:53;19.70;99.90
19363;DHT22;9817;50.80926400;5.16316200;2023-10-13T00:27:28;19.70;99.90
19363;DHT22;9817;50.80926400;5.16316200;2023-10-13T00:29:59;19.80;99.90
19363;DHT22;9817;50.80926400;5.16316200;2023-10-13T00:32:49;19.90;99.90
19363;DHT22;9817;50.80926400;5.16316200;2023-10-13T00:35:28;19.90;99.90
19363;DHT22;9817;50.80926400;5.16316200;2023-10-13T00:37:57;19.90;99.90
19363;DHT22;9817;50.80926400;5.16316200;2023-10-13T00:40:29;19.90;99.90
19363;DHT22;9817;50.80926400;5.16316200;2023-10-13T00:42:55;19.80;99.90
19363;DHT22;9817;50.80926400;5.16316200;2023-10-13T00:45:26;19.80;99.90
19363;DHT22;9817;50.80926400;5.16316200;2023-10-13T00:47:54;19.80;99.90
19363;DHT22;9817;50.80926400;5.16316200;2023-10-13T00:50:23;19.80;99.90
19363;DHT22;9817;50.80926400;5.16316200;2023-10-13T00:52:49;19.80;99.90
19363;DHT22;9817;50.80926400;5.16316200;2023-10-13T00:55:18;19.90;99.90
19363;DHT22;9817;50.80926400;5.16316200;2023-10-13T00:57:44;19.80;99.90
19363;DHT22;9817;50.80926400;5.16316200;2023-10-13T01:00:12;19.80;99.90
19363;DHT22;9817;50.80926400;5.16316200;2023-10-13T01:02:47;19.80;99.90
19363;DHT22;9817;50.80926400;5.16316200;2023-10-13T01:05:25;19.80;99.90
19363;DHT22;9817;50.80926400;5.16316200;2023-10-13T01:07:51;19.70;99.90
19363;DHT22;9817;50.80926400;5.16316200;2023-10-13T01:10:23;19.70;99.90
19363;DHT22;9817;50.80926400;5.16316200;2023-10-13T01:12:54;19.70;99.90
19363;DHT22;9817;50.80926400;5.16316200;2023-10-13T01:15:20;19.70;99.90
19363;DHT22;9817;50.80926400;5.16316200;2023-10-13T01:17:49;19.60;99.90
19363;DHT22;9817;50.80926400;5.16316200;2023-10-13T01:20:15;19.60;99.90
19363;DHT22;9817;50.80926400;5.16316200;2023-10-13T01:22:50;19.60;99.90
19363;DHT22;9817;50.80926400;5.16316200;2023-10-13T01:25:23;19.70;99.90
19363;DHT22;9817;50.80926400;5.16316200;2023-10-13T01:27:54;19.70;99.90
19363;DHT22;9817;50.80926400;5.16316200;2023-10-13T01:30:20;19.70;99.90
19363;DHT22;9817;50.80926400;5.16316200;2023-10-13T01:32:53;19.60;99.90
19363;DHT22;9817;50.80926400;5.16316200;2023-10-13T01:35:20;19.50;99.90
19363;DHT22;9817;50.80926400;5.16316200;2023-10-13T01:37:51;19.60;99.90
19363;DHT22;9817;50.80926400;5.16316200;2023-10-13T01:40:17;19.60;99.90
19363;DHT22;9817;50.80926400;5.16316200;2023-10-13T01:42:48;19.50;99.90
19363;DHT22;9817;50.80926400;5.16316200;2023-10-13T01:45:21;19.50;99.90
19363;DHT22;9817;50.80926400;5.16316200;2023-10-13T01:47:46;19.50;99.90
19363;DHT22;9817;50.80926400;5.16316200;2023-10-13T01:50:16;19.50;99.90
19363;DHT22;9817;50.80926400;5.16316200;2023-10-13T01:52:46;19.50;99.90
19363;DHT22;9817;50.80926400;5.16316200;2023-10-13T01:55:12;19.50;99.90
19363;DHT22;9817;50.80926400;5.16316200;2023-10-13T01:57:39;19.50;99.90
19363;DHT22;9817;50.80926400;5.16316200;2023-10-13T02:00:08;19.50;99.90
19363;DHT22;9817;50.80926400;5.16316200;2023-10-13T02:02:44;19.40;99.90
19363;DHT22;9817;50.80926400;5.16316200;2023-10-13T02:05:11;19.50;99.90
19363;DHT22;9817;50.80926400;5.16316200;2023-10-13T02:07:37;19.50;99.90
19363;DHT22;9817;50.80926400;5.16316200;2023-10-13T02:10:04;19.50;99.90
19363;DHT22;9817;50.80926400;5.16316200;2023-10-13T02:12:31;19.50;99.90
19363;DHT22;9817;50.80926400;5.16316200;2023-10-13T02:15:13;19.60;99.90
19363;DHT22;9817;50.80926400;5.16316200;2023-10-13T02:17:52;19.50;99.90
19363;DHT22;9817;50.80926400;5.16316200;2023-10-13T02:20:20;19.40;99.90
19363;DHT22;9817;50.80926400;5.16316200;2023-10-13T02:22:49;19.40;99.90
19363;DHT22;9817;50.80926400;5.16316200;2023-10-13T02:25:19;19.40;99.90
19363;DHT22;9817;50.80926400;5.16316200;2023-10-13T02:28:11;19.50;99.90
19363;DHT22;9817;50.80926400;5.16316200;2023-10-13T02:30:41;19.50;99.90
19363;DHT22;9817;50.80926400;5.16316200;2023-10-13T02:33:11;19.50;99.90
19363;DHT22;9817;50.80926400;5.16316200;2023-10-13T02:35:38;19.60;99.90
19363;DHT22;9817;50.80926400;5.16316200;2023-10-13T02:38:08;19.60;99.90
19363;DHT22;9817;50.80926400;5.16316200;2023-10-13T02:40:40;19.50;99.90
19363;DHT22;9817;50.80926400;5.16316200;2023-10-13T02:43:07;19.50;99.90
19363;DHT22;9817;50.80926400;5.16316200;2023-10-13T02:45:33;19.60;99.90
19363;DHT22;9817;50.80926400;5.16316200;2023-10-13T02:48:03;19.60;99.90
19363;DHT22;9817;50.80926400;5.16316200;2023-10-13T02:50:40;19.60;99.90
19363;DHT22;9817;50.80926400;5.16316200;2023-10-13T02:53:09;19.60;99.90
19363;DHT22;9817;50.80926400;5.16316200;2023-10-13T02:55:48;19.70;99.90
19363;DHT22;9817;50.80926400;5.16316200;2023-10-13T02:58:13;19.70;99.90
19363;DHT22;9817;50.80926400;5.16316200;2023-10-13T03:00:40;19.70;99.90
19363;DHT22;9817;50.80926400;5.16316200;2023-10-13T03:03:06;19.70;99.90
19363;DHT22;9817;50.80926400;5.16316200;2023-10-13T03:05:35;19.70;99.90
19363;DHT22;9817;50.80926400;5.16316200;2023-10-13T03:08:05;19.70;99.90
19363;DHT22;9817;50.80926400;5.16316200;2023-10-13T03:10:31;19.60;99.90
19363;DHT22;9817;50.80926400;5.16316200;2023-10-13T03:12:58;19.60;99.90
19363;DHT22;9817;50.80926400;5.16316200;2023-10-13T03:15:24;19.50;99.90
19363;DHT22;9817;50.80926400;5.16316200;2023-10-13T03:17:56;19.60;99.90
19363;DHT22;9817;50.80926400;5.16316200;2023-10-13T03:20:25;19.70;99.90
19363;DHT22;9817;50.80926400;5.16316200;2023-10-13T03:22:57;19.70;99.90
19363;DHT22;9817;50.80926400;5.16316200;2023-10-13T03:25:23;19.70;99.90
19363;DHT22;9817;50.80926400;5.16316200;2023-10-13T03:28:08;19.70;99.90
19363;DHT22;9817;50.80926400;5.16316200;2023-10-13T03:30:37;19.80;99.90
19363;DHT22;9817;50.80926400;5.16316200;2023-10-13T03:33:07;19.80;99.90
19363;DHT22;9817;50.80926400;5.16316200;2023-10-13T03:35:40;19.80;99.90
19363;DHT22;9817;50.80926400;5.16316200;2023-10-13T03:38:15;19.60;99.90
19363;DHT22;9817;50.80926400;5.16316200;2023-10-13T03:40:44;19.60;99.90
19363;DHT22;9817;50.80926400;5.16316200;2023-10-13T03:43:14;19.60;99.90
19363;DHT22;9817;50.80926400;5.16316200;2023-10-13T03:45:48;19.60;99.90
19363;DHT22;9817;50.80926400;5.16316200;2023-10-13T03:48:18;19.70;99.90
19363;DHT22;9817;50.80926400;5.16316200;2023-10-13T03:50:50;19.70;99.90
19363;DHT22;9817;50.80926400;5.16316200;2023-10-13T03:53:54;19.70;99.90
19363;DHT22;9817;50.80926400;5.16316200;2023-10-13T03:56:21;19.60;99.90
19363;DHT22;9817;50.80926400;5.16316200;2023-10-13T03:59:05;19.60;99.90
19363;DHT22;9817;50.80926400;5.16316200;2023-10-13T04:01:45;19.70;99.90
19363;DHT22;9817;50.80926400;5.16316200;2023-10-13T04:04:28;19.80;99.90
19363;DHT22;9817;50.80926400;5.16316200;2023-10-13T04:07:05;19.70;99.90
19363;DHT22;9817;50.80926400;5.16316200;2023-10-13T04:09:30;19.60;99.90
19363;DHT22;9817;50.80926400;5.16316200;2023-10-13T04:11:57;19.60;99.90
19363;DHT22;9817;50.80926400;5.16316200;2023-10-13T04:14:33;19.50;99.90
19363;DHT22;9817;50.80926400;5.16316200;2023-10-13T04:17:18;19.60;99.90
19363;DHT22;9817;50.80926400;5.16316200;2023-10-13T04:19:55;19.60;99.90
19363;DHT22;9817;50.80926400;5.16316200;2023-10-13T04:22:39;19.60;99.90
19363;DHT22;9817;50.80926400;5.16316200;2023-10-13T04:25:24;19.60;99.90
19363;DHT22;9817;50.80926400;5.16316200;2023-10-13T04:28:15;19.50;99.90
19363;DHT22;9817;50.80926400;5.16316200;2023-10-13T04:30:59;19.50;99.90
19363;DHT22;9817;50.80926400;5.16316200;2023-10-13T04:33:33;19.60;99.90
19363;DHT22;9817;50.80926400;5.16316200;2023-10-13T04:36:17;19.60;99.90
19363;DHT22;9817;50.80926400;5.16316200;2023-10-13T04:38:49;19.70;99.90
19363;DHT22;9817;50.80926400;5.16316200;2023-10-13T04:41:29;19.70;99.90
19363;DHT22;9817;50.80926400;5.16316200;2023-10-13T04:44:18;19.50;99.90
19363;DHT22;9817;50.80926400;5.16316200;2023-10-13T04:47:02;19.60;99.90
19363;DHT22;9817;50.80926400;5.16316200;2023-10-13T04:49:29;19.60;99.90
19363;DHT22;9817;50.80926400;5.16316200;2023-10-13T04:52:16;19.50;99.90
19363;DHT22;9817;50.80926400;5.16316200;2023-10-13T04:55:00;19.50;99.90
19363;DHT22;9817;50.80926400;5.16316200;2023-10-13T04:57:41;19.50;99.90
19363;DHT22;9817;50.80926400;5.16316200;2023-10-13T05:00:18;19.70;99.90
19363;DHT22;9817;50.80926400;5.16316200;2023-10-13T05:02:47;19.60;99.90
19363;DHT22;9817;50.80926400;5.16316200;2023-10-13T05:05:31;19.60;99.90
19363;DHT22;9817;50.80926400;5.16316200;2023-10-13T05:07:57;19.50;99.90
19363;DHT22;9817;50.80926400;5.16316200;2023-10-13T05:10:41;19.50;99.90
19363;DHT22;9817;50.80926400;5.16316200;2023-10-13T05:13:35;19.60;99.90
19363;DHT22;9817;50.80926400;5.16316200;2023-10-13T05:16:20;19.50;99.90
19363;DHT22;9817;50.80926400;5.16316200;2023-10-13T05:19:04;19.50;99.90
19363;DHT22;9817;50.80926400;5.16316200;2023-10-13T05:21:48;19.70;99.90
19363;DHT22;9817;50.80926400;5.16316200;2023-10-13T05:24:32;19.70;99.90
19363;DHT22;9817;50.80926400;5.16316200;2023-10-13T05:27:16;19.60;99.90
19363;DHT22;9817;50.80926400;5.16316200;2023-10-13T05:30:00;19.50;99.90
19363;DHT22;9817;50.80926400;5.16316200;2023-10-13T05:32:44;19.50;99.90
19363;DHT22;9817;50.80926400;5.16316200;2023-10-13T05:35:31;19.50;99.90
19363;DHT22;9817;50.80926400;5.16316200;2023-10-13T05:38:15;19.50;99.90
19363;DHT22;9817;50.80926400;5.16316200;2023-10-13T05:41:02;19.60;99.90
19363;DHT22;9817;50.80926400;5.16316200;2023-10-13T05:43:47;19.70;99.90
19363;DHT22;9817;50.80926400;5.16316200;2023-10-13T05:46:32;19.70;99.90
19363;DHT22;9817;50.80926400;5.16316200;2023-10-13T05:49:04;19.70;99.90
19363;DHT22;9817;50.80926400;5.16316200;2023-10-13T05:51:43;19.70;99.90
19363;DHT22;9817;50.80926400;5.16316200;2023-10-13T05:54:17;19.70;99.90
19363;DHT22;9817;50.80926400;5.16316200;2023-10-13T05:56:45;19.60;99.90
19363;DHT22;9817;50.80926400;5.16316200;2023-10-13T05:59:29;19.60;99.90
19363;DHT22;9817;50.80926400;5.16316200;2023-10-13T06:02:18;19.60;99.90
19363;DHT22;9817;50.80926400;5.16316200;2023-10-13T06:05:07;19.70;99.90
19363;DHT22;9817;50.80926400;5.16316200;2023-10-13T06:07:52;19.60;99.90
19363;DHT22;9817;50.80926400;5.16316200;2023-10-13T06:10:36;19.60;99.90
19363;DHT22;9817;50.80926400;5.16316200;2023-10-13T06:13:37;19.60;99.90
19363;DHT22;9817;50.80926400;5.16316200;2023-10-13T06:16:22;19.70;99.90
19363;DHT22;9817;50.80926400;5.16316200;2023-10-13T06:19:06;19.80;99.90
19363;DHT22;9817;50.80926400;5.16316200;2023-10-13T06:21:50;19.80;99.90
19363;DHT22;9817;50.80926400;5.16316200;2023-10-13T06:24:34;19.80;99.90
19363;DHT22;9817;50.80926400;5.16316200;2023-10-13T06:27:18;19.90;99.90
19363;DHT22;9817;50.80926400;5.16316200;2023-10-13T06:30:03;19.80;99.90
19363;DHT22;9817;50.80926400;5.16316200;2023-10-13T06:32:32;19.80;99.90
19363;DHT22;9817;50.80926400;5.16316200;2023-10-13T06:34:58;19.90;99.90
19363;DHT22;9817;50.80926400;5.16316200;2023-10-13T06:37:27;19.90;99.90
19363;DHT22;9817;50.80926400;5.16316200;2023-10-13T06:39:57;19.90;99.90
19363;DHT22;9817;50.80926400;5.16316200;2023-10-13T06:42:38;19.90;99.90
19363;DHT22;9817;50.80926400;5.16316200;2023-10-13T06:45:09;19.90;99.90
19363;DHT22;9817;50.80926400;5.16316200;2023-10-13T06:47:35;20.00;99.90
19363;DHT22;9817;50.80926400;5.16316200;2023-10-13T06:50:15;19.90;99.90
19363;DHT22;9817;50.80926400;5.16316200;2023-10-13T06:52:50;19.90;99.90
19363;DHT22;9817;50.80926400;5.16316200;2023-10-13T06:55:20;19.90;99.90
19363;DHT22;9817;50.80926400;5.16316200;2023-10-13T06:58:03;20.00;99.90
19363;DHT22;9817;50.80926400;5.16316200;2023-10-13T07:00:32;19.90;99.90
19363;DHT22;9817;50.80926400;5.16316200;2023-10-13T07:03:04;20.00;99.90
19363;DHT22;9817;50.80926400;5.16316200;2023-10-13T07:05:43;20.00;99.90
19363;DHT22;9817;50.80926400;5.16316200;2023-10-13T07:08:10;20.10;99.90
19363;DHT22;9817;50.80926400;5.16316200;2023-10-13T07:10:47;20.20;99.90
19363;DHT22;9817;50.80926400;5.16316200;2023-10-13T07:13:27;20.30;99.90
19363;DHT22;9817;50.80926400;5.16316200;2023-10-13T07:15:53;20.30;99.90
19363;DHT22;9817;50.80926400;5.16316200;2023-10-13T07:18:25;20.20;99.90
19363;DHT22;9817;50.80926400;5.16316200;2023-10-13T07:20:51;20.10;99.90
19363;DHT22;9817;50.80926400;5.16316200;2023-10-13T07:23:17;20.20;99.90
19363;DHT22;9817;50.80926400;5.16316200;2023-10-13T07:25:53;20.10;99.90
19363;DHT22;9817;50.80926400;5.16316200;2023-10-13T07:28:31;20.30;99.90
19363;DHT22;9817;50.80926400;5.16316200;2023-10-13T07:31:04;20.30;99.90
19363;DHT22;9817;50.80926400;5.16316200;2023-10-13T07:33:30;20.50;99.90
19363;DHT22;9817;50.80926400;5.16316200;2023-10-13T07:36:07;20.70;99.90
19363;DHT22;9817;50.80926400;5.16316200;2023-10-13T07:38:48;20.60;99.90
19363;DHT22;9817;50.80926400;5.16316200;2023-10-13T07:41:17;20.50;99.90
19363;DHT22;9817;50.80926400;5.16316200;2023-10-13T07:43:47;20.80;99.90
19363;DHT22;9817;50.80926400;5.16316200;2023-10-13T07:46:14;20.70;99.90
19363;DHT22;9817;50.80926400;5.16316200;2023-10-13T07:48:40;20.60;99.90
19363;DHT22;9817;50.80926400;5.16316200;2023-10-13T07:51:09;20.70;99.90
19363;DHT22;9817;50.80926400;5.16316200;2023-10-13T07:53:45;20.60;99.90
19363;DHT22;9817;50.80926400;5.16316200;2023-10-13T07:56:14;20.50;99.90
19363;DHT22;9817;50.80926400;5.16316200;2023-10-13T07:58:44;20.70;99.90
19363;DHT22;9817;50.80926400;5.16316200;2023-10-13T08:01:31;20.60;99.90
19363;DHT22;9817;50.80926400;5.16316200;2023-10-13T08:03:58;20.70;99.90
19363;DHT22;9817;50.80926400;5.16316200;2023-10-13T08:06:30;20.80;99.90
19363;DHT22;9817;50.80926400;5.16316200;2023-10-13T08:08:56;20.90;99.90
19363;DHT22;9817;50.80926400;5.16316200;2023-10-13T08:11:32;21.10;99.90
19363;DHT22;9817;50.80926400;5.16316200;2023-10-13T08:14:01;21.20;99.90
19363;DHT22;9817;50.80926400;5.16316200;2023-10-13T08:16:38;21.10;99.90
19363;DHT22;9817;50.80926400;5.16316200;2023-10-13T08:19:23;21.20;99.90
19363;DHT22;9817;50.80926400;5.16316200;2023-10-13T08:22:11;21.30;99.90
19363;DHT22;9817;50.80926400;5.16316200;2023-10-13T08:24:46;21.30;99.90
19363;DHT22;9817;50.80926400;5.16316200;2023-10-13T08:27:14;21.40;99.90
19363;DHT22;9817;50.80926400;5.16316200;2023-10-13T08:29:45;21.50;99.90
19363;DHT22;9817;50.80926400;5.16316200;2023-10-13T08:32:29;21.60;99.90
19363;DHT22;9817;50.80926400;5.16316200;2023-10-13T08:34:56;21.60;99.90
19363;DHT22;9817;50.80926400;5.16316200;2023-10-13T08:37:22;21.60;99.90
19363;DHT22;9817;50.80926400;5.16316200;2023-10-13T08:39:51;21.60;99.90
19363;DHT22;9817;50.80926400;5.16316200;2023-10-13T08:42:37;21.60;99.90
19363;DHT22;9817;50.80926400;5.16316200;2023-10-13T08:45:12;21.70;99.90
19363;DHT22;9817;50.80926400;5.16316200;2023-10-13T08:47:54;21.90;99.90
19363;DHT22;9817;50.80926400;5.16316200;2023-10-13T08:50:34;21.90;99.90
19363;DHT22;9817;50.80926400;5.16316200;2023-10-13T08:56:06;21.90;99.90
19363;DHT22;9817;50.80926400;5.16316200;2023-10-13T08:58:51;22.10;99.90
19363;DHT22;9817;50.80926400;5.16316200;2023-10-13T09:01:19;22.10;99.90
19363;DHT22;9817;50.80926400;5.16316200;2023-10-13T09:04:01;21.90;99.90
19363;DHT22;9817;50.80926400;5.16316200;2023-10-13T09:06:50;21.90;99.90
19363;DHT22;9817;50.80926400;5.16316200;2023-10-13T09:14:54;22.00;99.90
19363;DHT22;9817;50.80926400;5.16316200;2023-10-13T09:17:26;22.00;99.90
19363;DHT22;9817;50.80926400;5.16316200;2023-10-13T09:20:06;21.90;99.90
19363;DHT22;9817;50.80926400;5.16316200;2023-10-13T09:22:56;22.00;99.90
19363;DHT22;9817;50.80926400;5.16316200;2023-10-13T09:25:32;22.20;99.90
19363;DHT22;9817;50.80926400;5.16316200;2023-10-13T09:28:04;22.50;99.90
19363;DHT22;9817;50.80926400;5.16316200;2023-10-13T09:30:50;22.90;99.90
19363;DHT22;9817;50.80926400;5.16316200;2023-10-13T09:33:36;23.10;99.90
19363;DHT22;9817;50.80926400;5.16316200;2023-10-13T09:36:03;23.30;99.90
19363;DHT22;9817;50.80926400;5.16316200;2023-10-13T09:38:37;23.20;99.90
19363;DHT22;9817;50.80926400;5.16316200;2023-10-13T09:41:06;23.10;99.90
19363;DHT22;9817;50.80926400;5.16316200;2023-10-13T09:43:47;23.00;99.90
19363;DHT22;9817;50.80926400;5.16316200;2023-10-13T09:46:18;22.80;99.90
19363;DHT22;9817;50.80926400;5.16316200;2023-10-13T09:48:46;22.80;99.90
19363;DHT22;9817;50.80926400;5.16316200;2023-10-13T09:51:15;22.60;99.90
19363;DHT22;9817;50.80926400;5.16316200;2023-10-13T09:53:51;22.40;99.90
19363;DHT22;9817;50.80926400;5.16316200;2023-10-13T09:56:24;22.40;99.90
19363;DHT22;9817;50.80926400;5.16316200;2023-10-13T09:59:08;22.30;99.90
19363;DHT22;9817;50.80926400;5.16316200;2023-10-13T10:01:41;22.30;99.90
19363;DHT22;9817;50.80926400;5.16316200;2023-10-13T10:04:18;22.30;99.90
19363;DHT22;9817;50.80926400;5.16316200;2023-10-13T10:06:52;22.30;99.90
19363;DHT22;9817;50.80926400;5.16316200;2023-10-13T10:09:18;22.30;99.90
19363;DHT22;9817;50.80926400;5.16316200;2023-10-13T10:14:45;22.30;99.90
19363;DHT22;9817;50.80926400;5.16316200;2023-10-13T10:17:14;22.30;99.90
19363;DHT22;9817;50.80926400;5.16316200;2023-10-13T10:19:53;22.30;99.90
19363;DHT22;9817;50.80926400;5.16316200;2023-10-13T10:22:32;22.30;99.90
19363;DHT22;9817;50.80926400;5.16316200;2023-10-13T10:25:04;22.30;99.90
19363;DHT22;9817;50.80926400;5.16316200;2023-10-13T10:27:58;22.40;99.90
19363;DHT22;9817;50.80926400;5.16316200;2023-10-13T10:30:29;22.50;99.90
19363;DHT22;9817;50.80926400;5.16316200;2023-10-13T10:32:59;22.60;99.90
19363;DHT22;9817;50.80926400;5.16316200;2023-10-13T10:35:25;22.60;99.90
19363;DHT22;9817;50.80926400;5.16316200;2023-10-13T10:38:13;22.70;99.90
19363;DHT22;9817;50.80926400;5.16316200;2023-10-13T10:40:54;22.60;99.90
19363;DHT22;9817;50.80926400;5.16316200;2023-10-13T10:43:27;22.60;99.90
19363;DHT22;9817;50.80926400;5.16316200;2023-10-13T10:45:57;22.60;99.90
19363;DHT22;9817;50.80926400;5.16316200;2023-10-13T10:48:25;22.80;99.90
19363;DHT22;9817;50.80926400;5.16316200;2023-10-13T10:50:57;22.90;99.90
19363;DHT22;9817;50.80926400;5.16316200;2023-10-13T10:53:25;22.80;99.90
19363;DHT22;9817;50.80926400;5.16316200;2023-10-13T10:56:06;22.80;99.90
19363;DHT22;9817;50.80926400;5.16316200;2023-10-13T10:58:57;23.00;99.90
19363;DHT22;9817;50.80926400;5.16316200;2023-10-13T11:01:24;23.10;99.90
19363;DHT22;9817;50.80926400;5.16316200;2023-10-13T11:04:00;23.20;99.90
19363;DHT22;9817;50.80926400;5.16316200;2023-10-13T11:07:10;23.10;99.90
19363;DHT22;9817;50.80926400;5.16316200;2023-10-13T11:09:45;23.00;99.90
19363;DHT22;9817;50.80926400;5.16316200;2023-10-13T11:12:14;22.90;99.90
19363;DHT22;9817;50.80926400;5.16316200;2023-10-13T11:14:42;23.00;99.90
19363;DHT22;9817;50.80926400;5.16316200;2023-10-13T11:17:21;23.20;99.90
19363;DHT22;9817;50.80926400;5.16316200;2023-10-13T11:19:52;23.10;99.90
19363;DHT22;9817;50.80926400;5.16316200;2023-10-13T11:22:19;23.10;99.90
19363;DHT22;9817;50.80926400;5.16316200;2023-10-13T11:24:58;23.00;99.90
19363;DHT22;9817;50.80926400;5.16316200;2023-10-13T11:27:37;23.00;99.90
19363;DHT22;9817;50.80926400;5.16316200;2023-10-13T11:30:24;23.10;99.90
19363;DHT22;9817;50.80926400;5.16316200;2023-10-13T11:33:11;23.20;99.90
19363;DHT22;9817;50.80926400;5.16316200;2023-10-13T11:35:43;23.40;99.90
19363;DHT22;9817;50.80926400;5.16316200;2023-10-13T11:38:19;23.40;99.90
19363;DHT22;9817;50.80926400;5.16316200;2023-10-13T11:40:58;23.60;99.90
19363;DHT22;9817;50.80926400;5.16316200;2023-10-13T11:43:34;23.60;99.90
19363;DHT22;9817;50.80926400;5.16316200;2023-10-13T11:46:21;23.60;99.90
19363;DHT22;9817;50.80926400;5.16316200;2023-10-13T11:52:06;23.70;99.90
19363;DHT22;9817;50.80926400;5.16316200;2023-10-13T11:54:44;23.50;99.90
19363;DHT22;9817;50.80926400;5.16316200;2023-10-13T11:57:10;23.30;99.90
19363;DHT22;9817;50.80926400;5.16316200;2023-10-13T11:59:36;23.30;99.90
19363;DHT22;9817;50.80926400;5.16316200;2023-10-13T12:02:06;23.20;99.90
19363;DHT22;9817;50.80926400;5.16316200;2023-10-13T12:04:50;23.20;99.90
19363;DHT22;9817;50.80926400;5.16316200;2023-10-13T12:07:23;23.10;99.90
19363;DHT22;9817;50.80926400;5.16316200;2023-10-13T12:09:51;23.20;99.90
19363;DHT22;9817;50.80926400;5.16316200;2023-10-13T12:12:20;23.20;99.90
19363;DHT22;9817;50.80926400;5.16316200;2023-10-13T12:14:46;23.40;99.90
19363;DHT22;9817;50.80926400;5.16316200;2023-10-13T12:17:28;23.80;99.90
19363;DHT22;9817;50.80926400;5.16316200;2023-10-13T12:19:57;23.80;99.90
19363;DHT22;9817;50.80926400;5.16316200;2023-10-13T12:22:24;23.90;99.90
19363;DHT22;9817;50.80926400;5.16316200;2023-10-13T12:24:57;24.00;99.90
19363;DHT22;9817;50.80926400;5.16316200;2023-10-13T12:27:22;24.00;99.90
19363;DHT22;9817;50.80926400;5.16316200;2023-10-13T12:30:01;23.90;99.90
19363;DHT22;9817;50.80926400;5.16316200;2023-10-13T12:32:33;24.20;99.90
19363;DHT22;9817;50.80926400;5.16316200;2023-10-13T12:35:00;24.10;99.90
19363;DHT22;9817;50.80926400;5.16316200;2023-10-13T12:37:32;24.20;99.90
19363;DHT22;9817;50.80926400;5.16316200;2023-10-13T12:40:08;24.00;99.90
19363;DHT22;9817;50.80926400;5.16316200;2023-10-13T12:42:53;24.00;99.90
19363;DHT22;9817;50.80926400;5.16316200;2023-10-13T12:45:41;23.80;99.90
19363;DHT22;9817;50.80926400;5.16316200;2023-10-13T12:48:25;23.80;99.90
19363;DHT22;9817;50.80926400;5.16316200;2023-10-13T12:51:09;23.80;99.90
19363;DHT22;9817;50.80926400;5.16316200;2023-10-13T12:53:48;23.60;99.90
19363;DHT22;9817;50.80926400;5.16316200;2023-10-13T12:56:15;23.60;99.90
19363;DHT22;9817;50.80926400;5.16316200;2023-10-13T12:58:52;23.50;99.90
19363;DHT22;9817;50.80926400;5.16316200;2023-10-13T13:01:21;23.50;99.90
19363;DHT22;9817;50.80926400;5.16316200;2023-10-13T13:03:48;23.60;99.90
19363;DHT22;9817;50.80926400;5.16316200;2023-10-13T13:06:22;23.60;99.90
19363;DHT22;9817;50.80926400;5.16316200;2023-10-13T13:08:54;23.40;99.90
19363;DHT22;9817;50.80926400;5.16316200;2023-10-13T13:11:21;23.40;99.90
19363;DHT22;9817;50.80926400;5.16316200;2023-10-13T13:13:47;23.60;99.90
19363;DHT22;9817;50.80926400;5.16316200;2023-10-13T13:16:13;23.60;99.90
19363;DHT22;9817;50.80926400;5.16316200;2023-10-13T13:18:39;23.50;99.90
19363;DHT22;9817;50.80926400;5.16316200;2023-10-13T13:21:06;23.40;99.90
19363;DHT22;9817;50.80926400;5.16316200;2023-10-13T13:23:32;23.40;99.90
19363;DHT22;9817;50.80926400;5.16316200;2023-10-13T13:26:00;23.30;99.90
19363;DHT22;9817;50.80926400;5.16316200;2023-10-13T13:28:26;23.30;99.90
19363;DHT22;9817;50.80926400;5.16316200;2023-10-13T13:30:55;23.10;99.90
19363;DHT22;9817;50.80926400;5.16316200;2023-10-13T13:33:20;23.10;99.90
19363;DHT22;9817;50.80926400;5.16316200;2023-10-13T13:35:54;23.20;99.90
19363;DHT22;9817;50.80926400;5.16316200;2023-10-13T13:38:19;23.10;99.90
19363;DHT22;9817;50.80926400;5.16316200;2023-10-13T13:40:48;23.10;99.90
19363;DHT22;9817;50.80926400;5.16316200;2023-10-13T13:43:20;23.10;99.90
19363;DHT22;9817;50.80926400;5.16316200;2023-10-13T13:46:25;22.90;99.90
19363;DHT22;9817;50.80926400;5.16316200;2023-10-13T13:48:53;22.80;99.90
19363;DHT22;9817;50.80926400;5.16316200;2023-10-13T13:51:29;22.80;99.90
19363;DHT22;9817;50.80926400;5.16316200;2023-10-13T13:53:58;23.10;99.90
19363;DHT22;9817;50.80926400;5.16316200;2023-10-13T13:56:24;23.00;99.90
19363;DHT22;9817;50.80926400;5.16316200;2023-10-13T13:58:54;23.00;99.90
19363;DHT22;9817;50.80926400;5.16316200;2023-10-13T14:01:24;23.00;99.90
19363;DHT22;9817;50.80926400;5.16316200;2023-10-13T14:03:54;22.80;99.90
19363;DHT22;9817;50.80926400;5.16316200;2023-10-13T14:06:28;22.70;99.90
19363;DHT22;9817;50.80926400;5.16316200;2023-10-13T14:08:58;22.80;99.90
19363;DHT22;9817;50.80926400;5.16316200;2023-10-13T14:11:47;22.80;99.90
19363;DHT22;9817;50.80926400;5.16316200;2023-10-13T14:14:38;22.80;99.90
19363;DHT22;9817;50.80926400;5.16316200;2023-10-13T14:17:11;22.70;99.90
19363;DHT22;9817;50.80926400;5.16316200;2023-10-13T14:19:37;22.70;99.90
19363;DHT22;9817;50.80926400;5.16316200;2023-10-13T14:22:06;22.70;99.90
19363;DHT22;9817;50.80926400;5.16316200;2023-10-13T14:24:34;22.80;99.90
19363;DHT22;9817;50.80926400;5.16316200;2023-10-13T14:27:01;22.70;99.90